Time;durP1;ratioP1;P1;durP2;ratioP2;P2;SDS_P1;SDS_P2;PMS_P1;PMS_P2;Temp;Humidity;BMP_temperature;BMP_pressure;BME280_temperature;BME280_humidity;BME280_pressure;Samples;Min_cycle;Max_cycle;Signal;HPM_P1;HPM_P2
2021/11/19 00:03:05;;;;;;;8.23;3.17;;;;;;;7.38;100.00;99333.72;10306285;28;20145;-55
2021/11/19 00:08:09;;;;;;;12.57;3.63;;;;;;;7.47;100.00;99325.94;10320310;28;20043;-52
2021/11/19 00:13:13;;;;;;;7.47;3.33;;;;;;;7.51;100.00;99322.06;10322709;28;20117;-54
2021/11/19 00:18:17;;;;;;;9.52;3.20;;;;;;;7.52;100.00;99310.34;10319027;28;20129;-52
2021/11/19 00:23:21;;;;;;;9.80;3.22;;;;;;;7.59;100.00;99324.97;10324884;28;20050;-54
2021/11/19 00:28:25;;;;;;;11.30;3.42;;;;;;;7.64;100.00;99333.53;10317197;28;20510;-54
2021/11/19 00:33:30;;;;;;;7.93;3.45;;;;;;;7.61;100.00;99327.56;10319586;28;20077;-54
2021/11/19 00:38:33;;;;;;;13.65;3.75;;;;;;;7.60;100.00;99333.91;10301370;28;20503;-55
2021/11/19 00:43:39;;;;;;;10.18;3.55;;;;;;;7.63;100.00;99326.47;10309390;28;20127;-55
2021/11/19 00:48:44;;;;;;;9.10;3.42;;;;;;;7.61;100.00;99344.50;10319310;28;20074;-52
2021/11/19 00:53:50;;;;;;;9.52;3.70;;;;;;;7.62;100.00;99343.53;10317326;28;20443;-52
2021/11/19 00:58:59;;;;;;;11.88;3.80;;;;;;;7.63;100.00;99347.06;10305502;28;20058;-52
2021/11/19 01:04:05;;;;;;;10.27;3.78;;;;;;;7.61;100.00;99349.03;10319808;28;20743;-53
2021/11/19 01:09:12;;;;;;;10.20;3.92;;;;;;;7.65;100.00;99350.47;10299712;28;20061;-53
2021/11/19 01:14:21;;;;;;;8.45;3.65;;;;;;;7.64;100.00;99352.31;10322216;28;20130;-52
2021/11/19 01:19:26;;;;;;;8.95;3.70;;;;;;;7.61;100.00;99344.50;10300193;28;20074;-53
2021/11/19 01:24:31;;;;;;;9.52;3.90;;;;;;;7.62;100.00;99342.69;10299217;28;20472;-54
2021/11/19 01:29:35;;;;;;;11.38;3.78;;;;;;;7.65;100.00;99343.28;10301835;28;20039;-52
2021/11/19 01:34:40;;;;;;;9.65;4.80;;;;;;;7.58;100.00;99339.41;10320758;28;20786;-55
2021/11/19 01:39:48;;;;;;;8.43;4.55;;;;;;;7.54;100.00;99327.19;10303804;28;20046;-54
2021/11/19 01:45:11;;;;;;;11.15;4.55;;;;;;;7.51;100.00;99336.34;10300278;28;20062;-55
2021/11/19 01:50:23;;;;;;;11.00;4.50;;;;;;;7.50;100.00;99323.03;10313292;28;20057;-53
2021/11/19 01:55:30;;;;;;;8.75;4.95;;;;;;;7.44;100.00;99324.34;10300336;28;20098;-56
2021/11/19 02:00:38;;;;;;;10.38;5.20;;;;;;;7.41;100.00;99319.22;10302681;28;20046;-53
2021/11/19 02:05:58;;;;;;;10.07;5.40;;;;;;;7.40;100.00;99321.06;10302418;28;20042;-53
2021/11/19 02:11:29;;;;;;;10.27;5.13;;;;;;;7.39;100.00;99318.50;10315881;28;20518;-53
2021/11/19 02:16:37;;;;;;;10.35;5.78;;;;;;;7.37;100.00;99310.56;10299571;28;20053;-52
2021/11/19 02:21:44;;;;;;;10.30;5.60;;;;;;;7.38;100.00;99320.31;10298432;28;20054;-58
2021/11/19 02:26:51;;;;;;;12.20;5.47;;;;;;;7.40;100.00;99304.13;10301192;28;20376;-54
2021/11/19 02:32:01;;;;;;;9.35;4.93;;;;;;;7.43;100.00;99319.97;10303146;28;20046;-52
2021/11/19 02:37:20;;;;;;;9.35;4.90;;;;;;;7.45;100.00;99319.88;10299848;28;20529;-54
2021/11/19 02:42:28;;;;;;;6.40;3.45;;;;;;;7.55;100.00;99318.16;10298977;28;20043;-52
2021/11/19 02:47:33;;;;;;;9.00;3.15;;;;;;;7.71;100.00;99332.06;10314784;28;20053;-57
2021/11/19 02:52:39;;;;;;;6.50;3.15;;;;;;;7.84;100.00;99329.28;10297088;28;20054;-53
2021/11/19 02:57:45;;;;;;;4.72;2.90;;;;;;;7.92;100.00;99342.09;10291743;28;20050;-55
2021/11/19 03:02:50;;;;;;;6.00;3.00;;;;;;;8.06;100.00;99342.81;10317152;28;20042;-52
2021/11/19 03:07:54;;;;;;;5.32;2.50;;;;;;;8.22;100.00;99351.34;10301371;28;20145;-52
2021/11/19 03:12:57;;;;;;;4.63;3.20;;;;;;;8.28;100.00;99342.81;10307903;28;20086;-55
2021/11/19 03:18:02;;;;;;;5.05;3.10;;;;;;;8.35;100.00;99358.41;10308760;28;20161;-52
2021/11/19 03:23:06;;;;;;;6.82;3.10;;;;;;;8.38;100.00;99366.25;10305347;28;20458;-52
2021/11/19 03:28:13;;;;;;;5.55;2.85;;;;;;;8.46;100.00;99355.72;10324106;28;20114;-53
2021/11/19 03:33:21;;;;;;;6.13;3.30;;;;;;;8.47;100.00;99362.81;10307138;28;20145;-55
2021/11/19 03:38:29;;;;;;;5.53;2.95;;;;;;;8.53;100.00;99356.94;10319981;28;20046;-54
2021/11/19 03:43:35;;;;;;;4.65;2.80;;;;;;;8.60;100.00;99344.75;10321643;28;20085;-53
2021/11/19 03:48:42;;;;;;;4.50;2.95;;;;;;;8.58;100.00;99340.47;10300281;28;20098;-59
2021/11/19 03:53:46;;;;;;;6.22;3.00;;;;;;;8.59;100.00;99348.41;10307274;28;20081;-55
2021/11/19 03:58:50;;;;;;;6.25;3.13;;;;;;;8.60;100.00;99350.13;10299892;28;20054;-54
2021/11/19 04:03:56;;;;;;;5.28;3.45;;;;;;;8.62;100.00;99356.22;10306049;28;20061;-55
2021/11/19 04:08:59;;;;;;;6.40;3.70;;;;;;;8.58;100.00;99354.75;10297350;28;20583;-58
2021/11/19 04:14:04;;;;;;;5.05;3.30;;;;;;;8.63;100.00;99354.38;10301976;28;20536;-55
2021/11/19 04:19:11;;;;;;;3.95;3.00;;;;;;;8.67;100.00;99363.03;10294794;28;20054;-57
2021/11/19 04:24:22;;;;;;;3.97;2.42;;;;;;;8.67;100.00;99357.66;10301206;28;20058;-54
2021/11/19 04:29:25;;;;;;;;;;;;;;;8.66;100.00;99364.88;10298329;28;20581;-56
2021/11/19 04:34:45;;;;;;;4.93;2.58;;;;;;;8.68;100.00;99370.09;10292034;28;20058;-57
2021/11/19 04:39:49;;;;;;;2.97;2.67;;;;;;;8.71;100.00;99376.09;10317593;28;20055;-57
2021/11/19 04:44:53;;;;;;;5.78;2.95;;;;;;;8.73;100.00;99384.03;10315562;28;20061;-55
2021/11/19 04:49:58;;;;;;;3.97;2.67;;;;;;;8.76;100.00;99364.97;10295907;28;20569;-54
2021/11/19 04:55:01;;;;;;;3.17;2.50;;;;;;;8.79;100.00;99364.72;10298268;28;20061;-58
2021/11/19 05:00:09;;;;;;;5.00;2.50;;;;;;;8.76;100.00;99354.22;10289662;28;20093;-56
2021/11/19 05:05:26;;;;;;;4.20;2.33;;;;;;;8.77;100.00;99350.53;10300698;28;20418;-57
2021/11/19 05:10:30;;;;;;;3.55;2.40;;;;;;;8.76;100.00;99347.00;10302638;28;20497;-54
2021/11/19 05:15:36;;;;;;;4.68;2.65;;;;;;;8.59;100.00;99334.09;10319560;28;20050;-54
2021/11/19 05:20:40;;;;;;;3.50;2.60;;;;;;;8.43;100.00;99338.03;10302460;28;20104;-56
2021/11/19 05:25:44;;;;;;;4.50;2.25;;;;;;;8.50;100.00;99341.09;10299364;28;20511;-56
2021/11/19 05:30:48;;;;;;;2.97;2.17;;;;;;;8.66;100.00;99350.56;10299839;28;20133;-57
2021/11/19 05:35:53;;;;;;;3.80;2.65;;;;;;;8.53;100.00;99346.19;10296693;28;20089;-54
2021/11/19 05:40:58;;;;;;;3.78;2.63;;;;;;;8.40;100.00;99357.06;10299331;28;20045;-55
2021/11/19 05:46:04;;;;;;;5.07;2.63;;;;;;;8.32;100.00;99359.53;10298054;28;20051;-56
2021/11/19 05:51:30;;;;;;;4.28;2.53;;;;;;;8.21;100.00;99351.50;10318107;28;20059;-54
2021/11/19 05:56:34;;;;;;;2.40;2.13;;;;;;;8.12;100.00;99363.81;10296818;28;20484;-59
2021/11/19 06:01:38;;;;;;;3.00;2.05;;;;;;;8.05;100.00;99363.44;10297895;28;20050;-58
2021/11/19 06:06:46;;;;;;;3.75;2.35;;;;;;;8.09;100.00;99362.22;10295209;28;20047;-58
2021/11/19 06:12:04;;;;;;;3.88;2.28;;;;;;;8.09;100.00;99369.41;10296755;28;20038;-55
2021/11/19 06:17:14;;;;;;;2.95;2.30;;;;;;;8.08;100.00;99371.25;10312728;28;20046;-54
2021/11/19 06:22:24;;;;;;;2.72;2.30;;;;;;;8.09;100.00;99374.78;10313161;28;20061;-54
2021/11/19 06:27:33;;;;;;;6.30;2.40;;;;;;;8.08;100.00;99375.75;10308502;28;20069;-57
2021/11/19 06:32:37;;;;;;;6.07;2.25;;;;;;;8.10;100.00;99381.88;10296964;28;20073;-54
2021/11/19 06:37:43;;;;;;;3.08;2.40;;;;;;;8.10;100.00;99384.53;10294174;28;20078;-56
2021/11/19 06:43:07;;;;;;;2.50;2.30;;;;;;;8.05;100.00;99379.53;10311081;28;20073;-59
2021/11/19 06:48:29;;;;;;;6.07;2.33;;;;;;;8.02;100.00;99391.38;10314470;28;20139;-59
2021/11/19 06:53:50;;;;;;;2.63;2.10;;;;;;;8.08;100.00;99398.09;10300712;28;20062;-57
2021/11/19 06:59:12;;;;;;;3.22;2.00;;;;;;;8.13;100.00;99400.41;10312711;28;20425;-57
2021/11/19 07:04:15;;;;;;;2.70;2.03;;;;;;;8.18;100.00;99393.69;10328337;28;20450;-53
2021/11/19 07:09:20;;;;;;;4.40;1.80;;;;;;;8.24;100.00;99396.84;10303484;28;20153;-57
2021/11/19 07:14:25;;;;;;;2.83;1.20;;;;;;;8.46;100.00;99398.69;10327124;28;20070;-57
2021/11/19 07:19:30;;;;;;;1.10;1.00;;;;;;;8.61;100.00;99410.91;10321167;28;20050;-53
2021/11/19 07:24:37;;;;;;;1.30;1.10;;;;;;;8.58;100.00;99407.63;10305348;28;20101;-51
2021/11/19 07:29:46;;;;;;;1.15;1.05;;;;;;;8.57;100.00;99413.97;10306471;28;20503;-52
2021/11/19 07:35:09;;;;;;;3.40;1.30;;;;;;;8.54;100.00;99415.06;10319862;28;20081;-57
2021/11/19 07:40:36;;;;;;;2.78;1.30;;;;;;;8.56;100.00;99421.16;10314821;28;20054;-55
2021/11/19 07:46:05;;;;;;;1.15;1.00;;;;;;;8.62;100.00;99426.06;10317757;28;20060;-59
2021/11/19 07:51:18;;;;;;;2.03;1.30;;;;;;;8.61;100.00;99429.72;10303756;28;20400;-55
2021/11/19 07:56:29;;;;;;;1.65;1.30;;;;;;;8.55;100.00;99418.63;10303701;28;20056;-58
2021/11/19 08:01:34;;;;;;;2.22;1.30;;;;;;;8.48;100.00;99420.94;10307188;28;20456;-58
2021/11/19 08:06:39;;;;;;;1.50;1.40;;;;;;;8.45;100.00;99432.75;10303009;28;20451;-57
2021/11/19 08:12:02;;;;;;;2.05;1.50;;;;;;;8.42;100.00;99434.81;10310519;28;20038;-57
2021/11/19 08:17:25;;;;;;;2.33;1.40;;;;;;;8.40;100.00;99434.09;10298786;28;20039;-55
2021/11/19 08:22:35;;;;;;;1.70;1.17;;;;;;;8.43;100.00;99432.03;10302820;28;20145;-58
2021/11/19 08:27:42;;;;;;;1.10;1.00;;;;;;;8.47;100.00;99430.81;10312564;28;20050;-58
2021/11/19 08:32:45;;;;;;;1.33;0.82;;;;;;;8.56;100.00;99431.06;10318219;28;20078;-58
2021/11/19 08:37:49;;;;;;;1.85;1.00;;;;;;;8.62;100.00;99436.81;10308114;28;20130;-57
2021/11/19 08:42:54;;;;;;;1.00;0.90;;;;;;;8.67;100.00;99435.56;10298618;28;20415;-59
2021/11/19 08:47:58;;;;;;;3.20;1.20;;;;;;;8.67;100.00;99435.56;10311158;28;20086;-58
2021/11/19 08:53:01;;;;;;;0.82;0.70;;;;;;;8.70;100.00;99443.38;10324212;28;20514;-58
2021/11/19 08:58:06;;;;;;;1.65;0.95;;;;;;;8.71;100.00;99439.72;10320489;28;20077;-60
2021/11/19 09:03:10;;;;;;;0.88;0.80;;;;;;;8.75;100.00;99435.81;10317919;28;20126;-60
2021/11/19 09:08:17;;;;;;;2.30;0.88;;;;;;;8.80;100.00;99438.97;10319384;28;20060;-59
2021/11/19 09:13:21;;;;;;;1.05;1.00;;;;;;;8.78;100.00;99436.41;10316848;28;20070;-59
2021/11/19 09:18:44;;;;;;;1.20;1.10;;;;;;;8.75;100.00;99443.88;10312727;28;20101;-59
2021/11/19 09:23:49;;;;;;;1.25;1.05;;;;;;;8.72;100.00;99441.44;10316835;28;20661;-58
2021/11/19 09:28:55;;;;;;;1.55;1.13;;;;;;;8.68;100.00;99434.59;10297505;28;20500;-57
2021/11/19 09:33:58;;;;;;;1.80;1.00;;;;;;;8.72;100.00;99438.75;10311696;28;20495;-58
2021/11/19 09:39:01;;;;;;;1.95;1.10;;;;;;;8.74;100.00;99443.00;10310256;28;20400;-59
2021/11/19 09:44:22;;;;;;;2.22;1.20;;;;;;;8.73;100.00;99443.97;10307259;28;20259;-59
2021/11/19 09:49:49;;;;;;;2.80;1.17;;;;;;;8.70;100.00;99448.75;10308663;28;20073;-58
2021/11/19 09:55:29;;;;;;;0.95;0.90;;;;;;;8.74;100.00;99456.44;10305604;28;20113;-58
2021/11/19 10:00:48;;;;;;;1.05;0.93;;;;;;;8.79;100.00;99454.25;10307537;28;20039;-58
2021/11/19 10:05:57;;;;;;;4.60;1.10;;;;;;;8.84;100.00;99436.88;10315721;28;20053;-57
2021/11/19 10:11:11;;;;;;;1.77;1.30;;;;;;;8.94;100.00;99436.00;10307459;28;20579;-57
2021/11/19 10:16:47;;;;;;;2.58;0.80;;;;;;;9.04;100.00;99446.88;10310900;28;20097;-55
2021/11/19 10:21:59;;;;;;;3.53;1.20;;;;;;;9.09;100.00;99438.44;10309822;28;20507;-58
2021/11/19 10:27:06;;;;;;;1.55;0.90;;;;;;;9.08;100.00;99421.44;10311681;28;20061;-57
2021/11/19 10:32:14;;;;;;;2.30;0.90;;;;;;;9.12;100.00;99432.78;10310921;28;20069;-56
2021/11/19 10:37:42;;;;;;;2.13;0.98;;;;;;;9.17;100.00;99432.41;10306231;28;20126;-57
2021/11/19 10:43:24;;;;;;;1.02;0.93;;;;;;;9.21;100.00;99434.72;10266005;28;20078;-56
2021/11/19 10:49:00;;;;;;;1.80;1.10;;;;;;;9.23;100.00;99430.03;10294434;28;20581;-58
2021/11/19 10:54:53;;;;;;;2.05;1.10;;;;;;;9.27;100.00;99424.41;10291027;28;20510;-57
2021/11/19 11:00:13;;;;;;;3.15;0.93;;;;;;;9.34;100.00;99421.09;10310027;28;20062;-57
2021/11/19 11:05:28;;;;;;;2.43;1.30;;;;;;;9.38;100.00;99411.78;10313673;28;20093;-59
2021/11/19 11:10:34;;;;;;;1.33;0.90;;;;;;;9.44;100.00;99409.56;10297325;28;20059;-57
2021/11/19 11:15:50;;;;;;;1.15;0.90;;;;;;;9.47;100.00;99410.13;10312339;28;20053;-58
2021/11/19 11:21:03;;;;;;;2.42;1.13;;;;;;;9.50;100.00;99398.28;10325350;23;20139;-76
2021/11/19 11:26:13;;;;;;;1.48;0.98;;;;;;;9.56;100.00;99404.00;10417229;28;20045;-76
2021/11/19 11:31:38;;;;;;;1.05;0.70;;;;;;;9.59;100.00;99402.00;10425204;28;20068;-77
2021/11/19 11:36:47;;;;;;;1.70;0.70;;;;;;;9.64;100.00;99408.69;10429848;28;20045;-77
2021/11/19 11:42:00;;;;;;;0.85;0.82;;;;;;;9.69;100.00;99390.34;10445699;28;20124;-77
2021/11/19 11:47:08;;;;;;;1.73;0.85;;;;;;;9.73;100.00;99387.41;10445635;28;20099;-75
2021/11/19 11:52:36;;;;;;;1.08;0.90;;;;;;;9.77;100.00;99384.31;10431142;28;20132;-74
2021/11/19 11:57:49;;;;;;;0.80;0.80;;;;;;;9.85;100.00;99371.03;10439462;28;20417;-74
2021/11/19 12:02:57;;;;;;;1.77;0.80;;;;;;;9.92;100.00;99383.97;10433854;28;20045;-75
2021/11/19 12:08:22;;;;;;;1.88;0.88;;;;;;;9.93;100.00;99383.81;10446024;28;20048;-74
2021/11/19 12:13:30;;;;;;;1.75;0.73;;;;;;;10.00;100.00;99384.16;10419662;28;20047;-75
2021/11/19 12:18:41;;;;;;;0.80;0.80;;;;;;;10.03;100.00;99367.72;10434560;28;20520;-74
2021/11/19 12:23:56;;;;;;;1.00;0.83;;;;;;;10.11;100.00;99365.22;10431212;28;20919;-74
2021/11/19 12:29:07;;;;;;;0.95;0.85;;;;;;;10.09;100.00;99375.25;10437484;28;20449;-77
2021/11/19 12:34:24;;;;;;;1.40;0.82;;;;;;;10.05;100.00;99360.38;10434213;28;20045;-78
2021/11/19 12:39:30;;;;;;;1.60;0.77;;;;;;;10.03;100.00;99349.72;10454139;28;20064;-78
2021/11/19 12:44:57;;;;;;;1.52;0.70;;;;;;;10.05;100.00;99365.75;10459962;28;20131;-78
2021/11/19 12:50:12;;;;;;;2.80;1.00;;;;;;;9.92;100.00;99359.75;10454447;28;20056;-77
2021/11/19 12:55:36;;;;;;;1.35;1.25;;;;;;;9.75;100.00;99351.28;10448830;28;20053;-77
2021/11/19 13:01:11;;;;;;;5.88;3.45;;;;;;;9.61;100.00;99351.63;10433467;28;20056;-77
2021/11/19 13:06:29;;;;;;;1.90;1.50;;;;;;;9.47;100.00;99356.34;10457350;28;20048;-77
2021/11/19 13:11:52;;;;;;;2.28;2.00;;;;;;;9.33;100.00;99351.31;10424249;28;20049;-76
2021/11/19 13:16:57;;;;;;;9.85;6.35;;;;;;;9.30;100.00;99351.56;10440368;28;20464;-75
2021/11/19 13:22:02;;;;;;;3.33;1.80;;;;;;;9.14;100.00;99360.91;10427992;28;20784;-76
2021/11/19 13:27:51;;;;;;;2.75;1.40;;;;;;;9.06;100.00;99358.03;10435125;28;20041;-76
2021/11/19 13:33:28;;;;;;;2.30;1.58;;;;;;;9.07;100.00;99359.75;10418273;28;20128;-76
2021/11/19 13:39:05;;;;;;;1.85;1.60;;;;;;;9.00;100.00;99348.63;10413170;28;20059;-79
2021/11/19 13:44:09;;;;;;;1.73;1.42;;;;;;;8.97;100.00;99350.75;10429125;28;20512;-76
2021/11/19 13:49:45;;;;;;;2.13;1.30;;;;;;;8.87;100.00;99354.19;10428339;28;20052;-75
2021/11/19 13:54:48;;;;;;;2.20;1.50;;;;;;;8.85;100.00;99363.34;10416937;28;20152;-75
2021/11/19 13:59:59;;;;;;;1.40;1.30;;;;;;;8.81;100.00;99360.06;10425310;28;20136;-74
2021/11/19 14:05:06;;;;;;;2.00;1.65;;;;;;;8.76;100.00;99356.91;10432640;28;20739;-73
2021/11/19 14:10:27;;;;;;;1.60;1.50;;;;;;;8.69;100.00;99353.00;10422977;28;20051;-73
2021/11/19 14:15:32;;;;;;;1.57;1.40;;;;;;;8.65;100.00;99365.84;10426435;28;20459;-72
2021/11/19 14:26:05;;;;;;;2.33;1.60;;;;;;;8.60;100.00;99363.53;10429806;28;20045;-73
2021/11/19 14:31:29;;;;;;;2.22;1.60;;;;;;;8.60;100.00;99360.00;10439045;28;20045;-73
2021/11/19 14:36:47;;;;;;;3.70;2.20;;;;;;;8.61;100.00;99375.13;10438604;28;20056;-72
2021/11/19 14:41:53;;;;;;;3.50;2.05;;;;;;;8.66;100.00;99378.31;10413353;28;20625;-73
2021/11/19 14:47:01;;;;;;;2.13;1.45;;;;;;;8.64;100.00;99381.09;10426967;28;20047;-73
2021/11/19 14:52:14;;;;;;;2.55;1.70;;;;;;;8.63;100.00;99370.50;10423607;28;20045;-73
2021/11/19 14:57:40;;;;;;;3.25;1.67;;;;;;;8.62;100.00;99366.97;10427192;28;20045;-72
2021/11/19 15:02:55;;;;;;;3.78;1.30;;;;;;;8.76;100.00;99373.88;10427752;28;20051;-73
2021/11/19 15:08:14;;;;;;;1.90;1.20;;;;;;;8.85;100.00;99379.47;10431454;28;20506;-72
2021/11/19 15:13:27;;;;;;;1.38;1.27;;;;;;;8.90;100.00;99388.84;10429322;28;20044;-72
2021/11/19 15:18:47;;;;;;;2.90;1.25;;;;;;;8.96;100.00;99395.56;10410317;28;20771;-73
2021/11/19 15:23:56;;;;;;;2.17;1.20;;;;;;;8.97;100.00;99396.44;10426657;28;20394;-72
2021/11/19 15:29:18;;;;;;;2.35;1.00;;;;;;;9.04;100.00;99384.19;10411748;28;20581;-72
2021/11/19 15:34:28;;;;;;;1.67;1.20;;;;;;;9.01;100.00;99387.97;10425877;28;20034;-73
2021/11/19 15:39:32;;;;;;;2.60;1.15;;;;;;;8.99;100.00;99386.41;10417306;28;20049;-72
2021/11/19 15:44:39;;;;;;;1.83;1.17;;;;;;;9.00;100.00;99401.53;10431083;28;20045;-73
2021/11/19 15:49:45;;;;;;;1.52;1.00;;;;;;;8.93;100.00;99396.69;10430149;28;20055;-73
2021/11/19 15:55:15;;;;;;;2.50;2.10;;;;;;;8.77;100.00;99406.97;10430769;28;20116;-73
2021/11/19 16:00:24;;;;;;;2.63;1.40;;;;;;;8.87;100.00;99404.38;10419033;28;20528;-73
2021/11/19 16:05:57;;;;;;;2.80;1.40;;;;;;;8.91;100.00;99413.91;10419384;28;20616;-73
2021/11/19 16:17:03;;;;;;;1.85;1.40;;;;;;;8.97;100.00;99407.19;10435566;28;20095;-73
2021/11/19 16:22:10;;;;;;;1.77;1.67;;;;;;;8.96;100.00;99410.84;10421566;28;20056;-72
2021/11/19 16:27:16;;;;;;;2.85;1.88;;;;;;;8.92;100.00;99419.16;10440630;28;20036;-72
2021/11/19 16:32:24;;;;;;;3.40;2.13;;;;;;;8.93;100.00;99406.59;10435936;28;20069;-73
2021/11/19 16:37:30;;;;;;;;;;;;;;;8.92;100.00;99400.34;9550852;28;10000913;-73
2021/11/19 16:42:34;;;;;;;2.25;1.98;;;;;;;8.94;100.00;99403.75;10352674;28;19952;-72
2021/11/19 16:47:38;;;;;;;2.65;2.15;;;;;;;8.99;100.00;99403.38;10345467;28;20060;-72
2021/11/19 16:52:43;;;;;;;3.95;2.20;;;;;;;9.04;100.00;99405.69;10328629;28;20048;-73
2021/11/19 16:57:48;;;;;;;2.20;2.00;;;;;;;9.07;100.00;99395.53;10338623;28;20037;-72
2021/11/19 17:02:52;;;;;;;3.25;2.38;;;;;;;9.08;100.00;99391.84;10340272;28;20057;-72
2021/11/19 17:07:56;;;;;;;3.88;3.05;;;;;;;9.10;100.00;99389.06;10346319;28;20139;-72
2021/11/19 17:12:59;;;;;;;3.78;2.90;;;;;;;9.14;100.00;99389.66;10352707;28;20045;-74
2021/11/19 17:18:04;;;;;;;3.45;2.92;;;;;;;9.14;100.00;99387.81;10429808;23;20061;-63
2021/11/19 17:23:08;;;;;;;3.90;3.30;;;;;;;9.15;100.00;99372.53;10449593;28;20044;-64
2021/11/19 17:28:11;;;;;;;5.07;3.13;;;;;;;9.20;100.00;99384.63;10460421;28;20046;-59
2021/11/19 17:33:16;;;;;;;3.95;3.00;;;;;;;9.21;100.00;99388.13;10440303;28;20083;-62
2021/11/19 17:38:21;;;;;;;4.53;3.28;;;;;;;9.24;100.00;99382.50;10459843;28;20378;-65
2021/11/19 17:43:24;;;;;;;5.13;3.35;;;;;;;9.20;100.00;99376.53;10462368;28;20037;-60
2021/11/19 17:48:32;;;;;;;6.82;4.68;;;;;;;9.32;100.00;99384.56;10454358;28;20135;-62
2021/11/19 17:53:35;;;;;;;6.57;4.35;;;;;;;9.32;100.00;99390.78;10450527;28;20068;-62
2021/11/19 17:58:38;;;;;;;5.97;4.55;;;;;;;9.33;100.00;99388.97;10456901;28;20059;-64
2021/11/19 18:03:43;;;;;;;6.45;4.53;;;;;;;9.40;100.00;99369.50;10440904;28;20060;-65
2021/11/19 18:08:49;;;;;;;9.15;5.35;;;;;;;9.42;100.00;99385.47;10443452;28;20053;-60
2021/11/19 18:13:55;;;;;;;9.55;5.18;;;;;;;9.45;100.00;99385.22;10477007;28;20119;-61
2021/11/19 18:18:59;;;;;;;7.53;5.57;;;;;;;9.44;100.00;99388.91;10463443;28;20080;-61
2021/11/19 18:24:02;;;;;;;7.03;5.10;;;;;;;9.44;100.00;99383.53;10460024;28;20045;-60
2021/11/19 18:29:06;;;;;;;7.13;5.00;;;;;;;9.38;100.00;99384.03;10450529;28;20049;-62
2021/11/19 18:34:11;;;;;;;7.72;5.35;;;;;;;9.40;100.00;99382.94;10463753;28;20048;-60
2021/11/19 18:39:15;;;;;;;6.90;5.35;;;;;;;9.46;100.00;99392.31;10455697;28;20056;-60
2021/11/19 18:44:19;;;;;;;8.07;5.60;;;;;;;9.41;100.00;99383.78;10481602;28;20044;-60
2021/11/19 18:49:24;;;;;;;7.45;5.18;;;;;;;9.45;100.00;99382.53;10474902;28;20055;-61
2021/11/19 18:54:29;;;;;;;6.93;5.70;;;;;;;9.42;100.00;99385.47;10472585;28;20076;-60
2021/11/19 18:59:32;;;;;;;7.50;5.82;;;;;;;9.46;100.00;99389.63;10473479;28;20065;-60
2021/11/19 19:04:38;;;;;;;7.25;5.57;;;;;;;9.44;100.00;99388.03;10473624;28;20455;-61
2021/11/19 19:09:43;;;;;;;7.82;5.22;;;;;;;9.49;100.00;99386.66;10468941;28;20135;-59
2021/11/19 19:14:47;;;;;;;8.85;4.88;;;;;;;9.49;100.00;99389.34;10473865;28;20052;-61
2021/11/19 19:19:52;;;;;;;9.35;4.57;;;;;;;9.61;100.00;99386.59;10464868;28;20082;-60
2021/11/19 19:24:56;;;;;;;8.18;5.50;;;;;;;9.55;100.00;99386.16;10472095;28;20064;-58
2021/11/19 19:29:59;;;;;;;9.05;5.93;;;;;;;9.66;100.00;99384.38;10480408;28;20115;-59
2021/11/19 19:35:06;;;;;;;7.70;5.10;;;;;;;9.63;100.00;99384.63;10462486;28;20128;-60
2021/11/19 19:40:19;;;;;;;7.85;4.60;;;;;;;9.62;100.00;99394.56;10470975;28;20099;-58
2021/11/19 19:45:29;;;;;;;8.00;5.47;;;;;;;9.63;100.00;99384.63;10473346;28;20120;-60
2021/11/19 19:50:41;;;;;;;10.38;6.25;;;;;;;9.55;100.00;99391.53;10482593;28;20052;-61
2021/11/19 19:55:46;;;;;;;8.70;5.50;;;;;;;9.65;100.00;99388.06;10474173;28;20051;-62
2021/11/19 20:00:54;;;;;;;9.15;6.15;;;;;;;9.63;100.00;99388.19;10500414;28;20043;-61
2021/11/19 20:06:01;;;;;;;9.90;5.80;;;;;;;9.63;100.00;99398.09;10488049;28;20289;-64
2021/11/19 20:11:06;;;;;;;11.30;5.88;;;;;;;9.61;100.00;99400.03;10481670;28;20532;-62
2021/11/19 20:16:10;;;;;;;9.52;6.55;;;;;;;9.52;100.00;99402.53;10490685;28;20083;-62
2021/11/19 20:21:16;;;;;;;9.55;6.78;;;;;;;9.60;100.00;99392.97;10493949;28;20040;-64
2021/11/19 20:26:24;;;;;;;9.48;7.00;;;;;;;9.66;100.00;99392.44;10472964;28;20386;-62
2021/11/19 20:31:31;;;;;;;13.32;7.22;;;;;;;9.68;100.00;99393.19;10483276;28;20545;-63
2021/11/19 20:36:37;;;;;;;9.68;7.07;;;;;;;9.67;100.00;99397.69;10483905;28;20071;-62
2021/11/19 20:41:45;;;;;;;12.90;7.85;;;;;;;9.75;100.00;99393.50;10483777;28;20052;-62
2021/11/19 20:46:49;;;;;;;11.50;7.03;;;;;;;9.74;100.00;99403.41;10478342;28;20155;-61
2021/11/19 20:51:55;;;;;;;11.18;6.93;;;;;;;9.71;100.00;99400.97;10468175;28;20041;-61
2021/11/19 20:57:01;;;;;;;10.20;7.22;;;;;;;9.71;100.00;99411.72;10464628;28;20295;-61
2021/11/19 21:02:08;;;;;;;12.00;7.90;;;;;;;9.70;100.00;99404.66;10445549;28;20793;-63
2021/11/19 21:07:12;;;;;;;12.45;8.18;;;;;;;9.73;100.00;99407.06;10456525;28;20057;-62
2021/11/19 21:12:19;;;;;;;13.23;8.10;;;;;;;9.73;100.00;99411.63;10442395;28;20135;-62
2021/11/19 21:17:22;;;;;;;13.00;9.05;;;;;;;9.75;100.00;99407.81;10449163;28;20132;-60
2021/11/19 21:22:30;;;;;;;10.75;8.63;;;;;;;9.73;100.00;99415.16;10439938;28;20057;-62
2021/11/19 21:27:33;;;;;;;15.98;8.95;;;;;;;9.72;100.00;99413.44;10461583;28;20044;-60
2021/11/19 21:32:37;;;;;;;11.82;8.75;;;;;;;9.66;100.00;99425.56;10440510;28;20378;-61
2021/11/19 21:37:42;;;;;;;11.50;8.20;;;;;;;9.64;100.00;99419.47;10467603;28;20091;-61
2021/11/19 21:42:46;;;;;;;12.15;8.07;;;;;;;9.70;100.00;99420.81;10446383;28;20044;-59
2021/11/19 21:47:49;;;;;;;11.85;8.45;;;;;;;9.69;100.00;99416.41;10472363;28;20067;-62
2021/11/19 21:52:59;;;;;;;14.82;8.23;;;;;;;9.63;100.00;99414.22;10474216;28;20057;-59
2021/11/19 21:58:07;;;;;;;12.88;7.93;;;;;;;9.61;100.00;99421.56;10485454;28;20100;-61
2021/11/19 22:03:12;;;;;;;11.05;8.30;;;;;;;9.57;100.00;99418.28;10466864;28;20453;-62
2021/11/19 22:08:19;;;;;;;12.18;7.97;;;;;;;9.52;100.00;99416.00;10475302;28;20051;-61
2021/11/19 22:13:22;;;;;;;14.98;8.50;;;;;;;9.58;100.00;99427.22;10479846;28;20044;-60
2021/11/19 22:18:28;;;;;;;12.68;8.65;;;;;;;9.52;100.00;99420.53;10457530;28;20086;-62
2021/11/19 22:23:33;;;;;;;14.32;8.75;;;;;;;9.56;100.00;99416.59;10467577;28;20048;-62
2021/11/19 22:28:41;;;;;;;11.68;8.35;;;;;;;9.61;100.00;99416.19;10446446;28;20670;-62
2021/11/19 22:33:45;;;;;;;13.27;8.40;;;;;;;9.60;100.00;99419.88;10454278;28;20091;-62
2021/11/19 22:38:52;;;;;;;12.63;8.18;;;;;;;9.63;100.00;99419.59;10465791;28;20541;-62
2021/11/19 22:43:56;;;;;;;13.75;8.43;;;;;;;9.60;100.00;99409.97;10443935;28;21478;-61
2021/11/19 22:48:59;;;;;;;13.02;8.05;;;;;;;9.61;100.00;99410.81;10467213;28;20087;-59
2021/11/19 22:54:06;;;;;;;14.07;9.07;;;;;;;9.56;100.00;99413.91;10457131;28;20033;-62
2021/11/19 22:59:11;;;;;;;12.30;7.97;;;;;;;9.56;100.00;99404.00;10460481;28;20152;-61
2021/11/19 23:04:22;;;;;;;14.75;8.40;;;;;;;9.49;100.00;99413.56;10460366;28;20029;-61
2021/11/19 23:09:32;;;;;;;12.63;7.05;;;;;;;9.48;100.00;99417.22;10459848;28;20051;-62
2021/11/19 23:14:35;;;;;;;10.10;6.68;;;;;;;9.48;100.00;99409.16;10458032;28;20044;-61
2021/11/19 23:19:40;;;;;;;10.65;7.40;;;;;;;9.50;100.00;99404.50;10371959;28;20072;-62
2021/11/19 23:24:47;;;;;;;12.88;6.78;;;;;;;9.43;100.00;99406.03;10381199;28;20059;-62
2021/11/19 23:29:51;;;;;;;13.05;7.20;;;;;;;9.40;100.00;99420.59;10393526;28;20508;-63
2021/11/19 23:35:00;;;;;;;11.50;7.22;;;;;;;9.47;100.00;99409.31;10403354;28;20053;-63
2021/11/19 23:40:07;;;;;;;12.82;6.93;;;;;;;9.49;100.00;99410.88;10398992;28;20129;-62
2021/11/19 23:45:14;;;;;;;10.88;7.20;;;;;;;9.47;100.00;99404.75;10388593;28;20069;-63
2021/11/19 23:50:18;;;;;;;10.68;6.65;;;;;;;9.51;100.00;99400.00;10388913;28;20124;-63
2021/11/19 23:55:24;;;;;;;12.05;6.93;;;;;;;9.52;100.00;99391.78;10405332;28;20038;-60
